Time;durP1;ratioP1;P1;durP2;ratioP2;P2;SDS_P1;SDS_P2;PMS_P1;PMS_P2;Temp;Humidity;BMP_temperature;BMP_pressure;BME280_temperature;BME280_humidity;BME280_pressure;Samples;Min_cycle;Max_cycle;Signal;HPM_P1;HPM_P2
2022/05/06 00:01:52;;;;;;;66.80;24.30;;;;;;;9.23;38.09;100313.56;25032;1316;3055168;-63
2022/05/06 00:04:21;;;;;;;69.50;24.30;;;;;;;9.20;37.97;100315.78;25134;1317;3026129;-63
2022/05/06 00:06:52;;;;;;;59.20;23.80;;;;;;;9.17;38.18;100319.57;25065;1316;3054648;-62
2022/05/06 00:09:20;;;;;;;67.90;25.50;;;;;;;9.13;38.38;100318.52;24970;1318;3026644;-63
2022/05/06 00:11:51;;;;;;;67.50;24.20;;;;;;;9.10;38.48;100321.42;25053;1316;3026209;-63
2022/05/06 00:14:20;;;;;;;71.80;25.00;;;;;;;9.13;38.22;100324.11;25075;1315;3054488;-62
2022/05/06 00:16:51;;;;;;;68.40;25.90;;;;;;;9.13;38.28;100323.96;25129;1315;3027011;-62
2022/05/06 00:19:19;;;;;;;67.60;27.00;;;;;;;9.07;38.23;100323.66;25005;1316;3026570;-64
2022/05/06 00:21:48;;;;;;;66.20;25.40;;;;;;;9.10;38.25;100327.02;25113;1316;3051482;-64
2022/05/06 00:24:17;;;;;;;70.00;26.50;;;;;;;9.06;38.56;100327.91;25034;1316;3026525;-64
2022/05/06 00:26:46;;;;;;;77.70;26.70;;;;;;;8.99;38.55;100330.61;25074;1316;3049150;-63
2022/05/06 00:29:17;;;;;;;85.40;29.10;;;;;;;9.00;38.61;100332.88;25074;1316;3026855;-62
2022/05/06 00:31:46;;;;;;;77.70;29.40;;;;;;;8.99;38.58;100329.75;25030;1318;3026291;-63
2022/05/06 00:34:15;;;;;;;76.40;29.50;;;;;;;8.99;38.54;100333.59;25084;1319;3051148;-62
2022/05/06 00:36:45;;;;;;;71.20;27.40;;;;;;;9.02;38.62;100333.82;25069;1319;3026325;-64
2022/05/06 00:39:14;;;;;;;86.50;29.70;;;;;;;8.97;38.70;100334.02;25030;1319;3027293;-63
2022/05/06 00:41:44;;;;;;;97.40;30.70;;;;;;;8.91;38.94;100336.73;25101;1316;3026745;-62
2022/05/06 00:44:13;;;;;;;81.20;30.50;;;;;;;8.81;39.37;100335.67;25011;1319;3026425;-63
2022/05/06 00:46:42;;;;;;;80.70;28.40;;;;;;;8.78;39.49;100341.23;25055;1318;3054938;-62
2022/05/06 00:49:12;;;;;;;69.80;28.50;;;;;;;8.80;39.44;100343.61;25069;1316;3029813;-63
2022/05/06 00:51:41;;;;;;;76.20;29.10;;;;;;;8.74;39.86;100349.08;25075;1316;3053971;-61
2022/05/06 00:54:10;;;;;;;82.00;29.50;;;;;;;8.67;40.24;100354.38;24992;1318;3026405;-62
2022/05/06 00:56:39;;;;;;;75.50;28.50;;;;;;;8.67;40.41;100354.95;25105;1315;3050386;-63
2022/05/06 00:59:09;;;;;;;73.70;29.90;;;;;;;8.59;40.58;100357.69;25028;1316;3026818;-62
2022/05/06 01:01:38;;;;;;;64.70;28.10;;;;;;;8.58;40.60;100354.75;25081;1315;3026558;-62
2022/05/06 01:04:10;;;;;;;83.50;31.50;;;;;;;8.52;40.77;100359.34;25116;1316;3027039;-64
2022/05/06 01:06:42;;;;;;;80.70;30.30;;;;;;;8.50;40.90;100358.18;25034;1316;3026588;-62
2022/05/06 01:09:16;;;;;;;78.00;30.10;;;;;;;8.46;41.18;100355.53;25091;1315;3026600;-63
2022/05/06 01:11:46;;;;;;;78.10;29.60;;;;;;;8.50;40.66;100352.95;25101;1316;3056265;-65
2022/05/06 01:14:33;;;;;;;73.70;30.10;;;;;;;8.47;40.97;100356.73;25035;1316;3026533;-63
2022/05/06 01:17:05;;;;;;;79.60;28.40;;;;;;;8.46;41.07;100355.17;25093;1318;3052976;-63
2022/05/06 01:19:35;;;;;;;80.30;30.40;;;;;;;8.50;40.61;100360.48;25094;1316;3026826;-62
2022/05/06 01:22:04;;;;;;;76.30;29.80;;;;;;;8.50;40.83;100358.36;25071;1316;3026690;-62
2022/05/06 01:24:33;;;;;;;69.90;30.00;;;;;;;8.47;41.21;100356.76;25059;1316;3026533;-64
2022/05/06 01:27:14;;;;;;;82.80;30.60;;;;;;;8.37;41.58;100356.89;25070;1318;3049767;-63
2022/05/06 01:29:43;;;;;;;80.20;30.90;;;;;;;8.40;41.11;100357.48;25106;1314;3070959;-62
2022/05/06 01:32:13;;;;;;;86.40;29.40;;;;;;;8.41;41.09;100358.17;25103;1316;3028185;-62
2022/05/06 01:34:42;;;;;;;85.20;31.50;;;;;;;8.34;41.37;100362.25;25086;1315;3026993;-64
2022/05/06 01:37:20;;;;;;;91.90;32.60;;;;;;;8.25;41.87;100360.30;25006;1318;3052650;-62
2022/05/06 01:39:52;;;;;;;83.40;30.40;;;;;;;8.24;41.61;100364.53;25115;1316;3025980;-63
2022/05/06 01:42:22;;;;;;;90.00;31.30;;;;;;;8.24;41.57;100358.77;25059;1315;3029026;-63
2022/05/06 01:45:07;;;;;;;86.60;31.70;;;;;;;8.20;41.87;100361.18;25045;1316;3054900;-63
2022/05/06 01:47:36;;;;;;;88.70;31.90;;;;;;;8.08;42.08;100359.01;25065;1316;3026528;-63
2022/05/06 01:50:10;;;;;;;89.60;32.20;;;;;;;8.15;41.94;100362.44;25075;1316;3026402;-64
2022/05/06 01:52:39;;;;;;;87.20;31.60;;;;;;;8.09;42.33;100363.33;25083;1315;3026669;-64
2022/05/06 01:55:09;;;;;;;83.70;31.20;;;;;;;8.04;42.29;100361.23;25116;1316;3026199;-63
2022/05/06 01:57:50;;;;;;;91.80;31.20;;;;;;;8.12;41.98;100367.61;25101;1316;3055409;-63
2022/05/06 02:00:19;;;;;;;90.20;30.30;;;;;;;8.09;42.12;100365.77;25077;1314;3026479;-62
2022/05/06 02:02:49;;;;;;;78.00;28.80;;;;;;;8.04;42.23;100364.36;25118;1315;3053100;-63
2022/05/06 02:05:26;;;;;;;84.30;29.90;;;;;;;8.00;42.40;100366.27;25063;1315;3054563;-62
2022/05/06 02:07:57;;;;;;;84.00;29.20;;;;;;;7.96;42.48;100366.79;25144;1315;3026272;-63
2022/05/06 02:10:27;;;;;;;88.60;32.30;;;;;;;7.99;42.34;100367.52;25078;1316;3026499;-62
2022/05/06 02:13:02;;;;;;;84.10;30.40;;;;;;;8.02;42.39;100373.02;25128;1315;3056030;-63
2022/05/06 02:15:54;;;;;;;84.80;30.80;;;;;;;8.02;42.31;100375.29;25452;1316;3053100;-62
2022/05/06 02:18:42;;;;;;;78.10;30.20;;;;;;;8.01;42.26;100379.33;25853;1316;3068563;-65
2022/05/06 02:21:30;;;;;;;94.60;31.70;;;;;;;8.01;42.39;100384.91;25854;1316;3049637;-63
2022/05/06 02:24:20;;;;;;;90.10;31.40;;;;;;;7.91;43.03;100394.84;25350;1316;3051730;-63
2022/05/06 02:27:12;;;;;;;94.70;31.50;;;;;;;7.91;42.91;100394.15;25123;1316;3052877;-64
2022/05/06 02:33:12;;;;;;;77.60;29.90;;;;;;;7.96;42.61;100400.09;25085;1314;3026006;-62
2022/05/06 02:35:28;;;;;;;81.20;29.20;;;;;;;7.94;42.92;100399.98;25092;1315;3052998;-64
2022/05/06 02:38:00;;;;;;;100.30;31.20;;;;;;;7.96;42.59;100406.39;25104;1316;3049872;-63
2022/05/06 02:40:34;;;;;;;88.30;31.70;;;;;;;7.96;42.66;100407.23;25090;1316;3070457;-64
2022/05/06 02:43:04;;;;;;;91.30;30.50;;;;;;;7.97;42.50;100413.32;25009;1316;3026608;-62
2022/05/06 02:45:35;;;;;;;90.20;31.00;;;;;;;8.05;42.50;100414.61;25125;1316;3026701;-64
2022/05/06 02:48:05;;;;;;;89.90;32.70;;;;;;;8.14;42.25;100411.15;25101;1316;3026220;-61
2022/05/06 02:50:38;;;;;;;93.90;32.20;;;;;;;8.15;42.25;100415.65;25040;1316;3027017;-64
2022/05/06 02:53:08;;;;;;;90.80;31.70;;;;;;;8.24;42.04;100415.18;25027;1319;3028444;-63
2022/05/06 02:55:41;;;;;;;93.40;33.00;;;;;;;8.22;42.08;100423.58;25047;1316;3026206;-63
2022/05/06 02:58:11;;;;;;;93.20;31.70;;;;;;;8.19;42.22;100423.52;25106;1315;3050083;-64
2022/05/06 03:00:40;;;;;;;94.90;32.10;;;;;;;8.19;42.10;100422.69;25073;1315;3027057;-64
2022/05/06 03:03:10;;;;;;;89.40;30.90;;;;;;;8.20;42.05;100429.77;25157;1315;3026552;-64
2022/05/06 03:05:42;;;;;;;95.00;32.60;;;;;;;8.18;42.37;100431.76;25080;1313;3026971;-65
2022/05/06 03:08:11;;;;;;;95.00;32.20;;;;;;;8.21;42.12;100435.16;25106;1315;3027288;-64
2022/05/06 03:10:43;;;;;;;79.20;29.30;;;;;;;8.27;41.81;100435.48;25109;1315;3026892;-63
2022/05/06 03:13:13;;;;;;;92.20;31.60;;;;;;;8.30;41.75;100439.54;25107;1315;3026566;-63
2022/05/06 03:15:43;;;;;;;88.80;32.70;;;;;;;8.27;42.09;100440.89;25067;1315;3027051;-63
2022/05/06 03:18:17;;;;;;;91.70;30.00;;;;;;;8.27;42.09;100444.56;25094;1316;3051850;-64
2022/05/06 03:20:45;;;;;;;86.20;31.40;;;;;;;8.24;42.03;100444.83;25064;1316;3026899;-63
2022/05/06 03:23:15;;;;;;;87.40;29.30;;;;;;;8.27;42.17;100449.96;25144;1316;3054503;-65
2022/05/06 03:25:44;;;;;;;76.10;30.40;;;;;;;8.33;41.97;100451.16;25027;1315;3026629;-63
2022/05/06 03:28:12;;;;;;;94.30;31.60;;;;;;;8.36;41.86;100459.05;25098;1315;3051937;-62
2022/05/06 03:30:44;;;;;;;78.50;31.50;;;;;;;8.28;42.40;100461.08;25058;1315;3026723;-63
2022/05/06 03:33:44;;;;;;;81.50;30.70;;;;;;;8.31;42.34;100465.36;25066;1316;3059358;-64
2022/05/06 03:36:25;;;;;;;84.40;29.60;;;;;;;8.42;41.96;100457.64;25057;1315;3053493;-67
2022/05/06 03:38:58;;;;;;;95.60;31.70;;;;;;;8.38;42.38;100464.21;25137;1315;3055213;-64
2022/05/06 03:41:30;;;;;;;88.10;30.50;;;;;;;8.41;41.99;100463.43;25150;1315;3028916;-64
2022/05/06 03:44:00;;;;;;;82.10;30.00;;;;;;;8.32;42.27;100466.54;25028;1316;3026834;-63
2022/05/06 03:46:29;;;;;;;87.80;30.30;;;;;;;8.40;41.67;100468.87;25081;1315;3026446;-64
2022/05/06 03:48:59;;;;;;;89.40;28.50;;;;;;;8.41;41.65;100466.92;25034;1316;3051596;-64
2022/05/06 03:51:28;;;;;;;85.90;29.40;;;;;;;8.46;41.55;100470.08;25092;1316;3026304;-64
2022/05/06 03:54:09;;;;;;;80.00;28.30;;;;;;;8.49;41.60;100473.28;25092;1315;3051723;-65
2022/05/06 03:56:38;;;;;;;81.80;27.70;;;;;;;8.45;41.84;100472.71;25114;1316;3026875;-64
2022/05/06 03:59:10;;;;;;;82.30;28.80;;;;;;;8.41;41.60;100479.84;25083;1315;3026894;-66
2022/05/06 04:01:40;;;;;;;80.40;27.20;;;;;;;8.45;41.34;100480.77;25091;1313;3027053;-65
2022/05/06 04:04:13;;;;;;;90.50;29.30;;;;;;;8.54;41.69;100484.29;25124;1313;3026790;-63
2022/05/06 04:06:42;;;;;;;80.70;30.50;;;;;;;8.56;41.60;100483.20;25097;1315;3026434;-64
2022/05/06 04:09:12;;;;;;;83.60;26.80;;;;;;;8.64;41.27;100485.32;25114;1316;3026873;-65
2022/05/06 04:11:42;;;;;;;82.10;30.60;;;;;;;8.72;41.29;100482.08;25151;1313;3029640;-65
2022/05/06 04:14:11;;;;;;;75.20;28.20;;;;;;;8.71;41.41;100483.87;25079;1315;3026681;-64
2022/05/06 04:16:44;;;;;;;77.00;28.10;;;;;;;8.77;41.31;100478.76;25188;1315;3028059;-66
2022/05/06 04:19:25;;;;;;;78.00;25.60;;;;;;;8.79;41.24;100473.11;25167;1315;3053653;-64
2022/05/06 04:24:50;;;;;;;73.50;26.30;;;;;;;8.76;41.60;100476.19;25041;1316;3052218;-63
2022/05/06 04:27:19;;;;;;;78.70;25.90;;;;;;;8.87;41.36;100480.98;25137;1315;3026809;-63
2022/05/06 04:29:49;;;;;;;72.90;25.10;;;;;;;8.94;41.11;100482.15;25158;1315;3026596;-63
2022/05/06 04:32:19;;;;;;;70.10;26.30;;;;;;;9.00;41.15;100490.28;25054;1316;3026608;-63
2022/05/06 04:34:48;;;;;;;72.40;28.40;;;;;;;9.09;41.06;100485.26;25154;1316;3026748;-62
2022/05/06 04:37:19;;;;;;;79.50;25.90;;;;;;;9.24;40.96;100488.16;25096;1313;3050788;-63
2022/05/06 04:39:49;;;;;;;73.90;27.40;;;;;;;9.30;40.91;100493.88;25203;1313;3028828;-63
2022/05/06 04:42:18;;;;;;;76.70;25.70;;;;;;;9.36;41.10;100490.86;25095;1315;3026477;-63
2022/05/06 04:44:47;;;;;;;77.00;27.30;;;;;;;9.41;40.85;100493.64;25095;1315;3054815;-64
2022/05/06 04:47:17;;;;;;;70.90;26.90;;;;;;;9.48;40.59;100498.58;25144;1316;3026613;-64
2022/05/06 04:49:46;;;;;;;72.20;26.60;;;;;;;9.56;40.73;100501.08;25105;1316;3026324;-62
2022/05/06 04:52:15;;;;;;;71.20;24.90;;;;;;;9.65;40.71;100504.91;25069;1315;3027052;-64
2022/05/06 04:54:45;;;;;;;79.80;27.60;;;;;;;9.69;40.93;100504.75;25152;1316;3069196;-63
2022/05/06 04:57:14;;;;;;;66.50;26.40;;;;;;;9.65;41.08;100502.10;25110;1316;3026491;-63
2022/05/06 04:59:47;;;;;;;69.50;24.20;;;;;;;9.77;40.78;100504.27;25131;1316;3026015;-64
2022/05/06 05:02:18;;;;;;;76.40;25.60;;;;;;;9.92;40.33;100504.52;25106;1315;3027635;-64
2022/05/06 05:04:52;;;;;;;75.10;24.70;;;;;;;10.01;40.29;100508.20;25098;1315;3026525;-64
2022/05/06 05:07:22;;;;;;;68.80;25.10;;;;;;;10.11;39.78;100500.39;25073;1315;3052042;-64
2022/05/06 05:09:57;;;;;;;64.20;24.40;;;;;;;10.11;39.95;100502.88;25115;1315;3055140;-63
2022/05/06 05:12:26;;;;;;;69.70;23.40;;;;;;;10.22;39.61;100500.98;25051;1316;3026696;-66
2022/05/06 05:14:56;;;;;;;62.70;22.50;;;;;;;10.33;39.37;100499.49;25144;1315;3027481;-64
2022/05/06 05:17:29;;;;;;;61.00;22.90;;;;;;;10.43;39.22;100502.43;25111;1316;3026948;-65
2022/05/06 05:19:58;;;;;;;55.50;22.20;;;;;;;10.48;39.15;100504.46;25051;1315;3026583;-64
2022/05/06 05:22:28;;;;;;;63.90;21.30;;;;;;;10.51;39.06;100506.29;25162;1315;3070284;-64
2022/05/06 05:24:58;;;;;;;54.80;20.10;;;;;;;10.59;38.89;100506.98;25048;1315;3026939;-64
2022/05/06 05:27:27;;;;;;;55.30;21.20;;;;;;;10.72;39.02;100505.85;25131;1315;3026647;-65
2022/05/06 05:29:56;;;;;;;62.30;19.90;;;;;;;10.85;38.95;100508.95;24995;1315;3070255;-64
2022/05/06 05:32:26;;;;;;;55.90;20.80;;;;;;;10.95;38.73;100505.55;25122;1316;3026716;-63
2022/05/06 05:34:55;;;;;;;63.40;19.40;;;;;;;11.03;38.34;100503.59;25142;1315;3026702;-66
2022/05/06 05:37:27;;;;;;;54.80;18.40;;;;;;;11.11;37.94;100500.96;25074;1315;3026433;-64
2022/05/06 05:39:57;;;;;;;52.90;18.80;;;;;;;11.09;38.13;100507.50;25081;1315;3026377;-63
2022/05/06 05:42:29;;;;;;;60.90;18.60;;;;;;;11.17;37.93;100509.77;25183;1314;3026909;-63
2022/05/06 05:50:41;;;;;;;48.70;16.40;;;;;;;11.36;37.23;100515.19;25116;1315;3052194;-65
2022/05/06 05:53:11;;;;;;;60.20;19.30;;;;;;;11.46;37.39;100513.69;25111;1315;3026441;-64
2022/05/06 05:55:41;;;;;;;49.90;17.70;;;;;;;11.57;37.22;100514.40;25136;1315;3027017;-65
2022/05/06 05:58:13;;;;;;;51.80;16.50;;;;;;;11.66;37.15;100513.27;25097;1316;3027905;-65
2022/05/06 06:00:43;;;;;;;44.50;15.70;;;;;;;11.78;36.78;100515.15;25189;1316;3026595;-64
2022/05/06 06:03:12;;;;;;;54.20;16.00;;;;;;;11.92;36.68;100517.09;25189;1316;3030455;-65
2022/05/06 06:05:44;;;;;;;44.20;14.10;;;;;;;12.06;36.52;100522.91;25118;1315;3026298;-66
2022/05/06 06:08:14;;;;;;;55.40;16.10;;;;;;;12.13;36.42;100516.77;25150;1315;3026868;-65
2022/05/06 06:10:44;;;;;;;45.60;13.00;;;;;;;12.23;36.31;100516.11;25140;1316;3027153;-62
2022/05/06 06:13:17;;;;;;;47.10;14.70;;;;;;;12.37;35.99;100515.76;25182;1315;3026160;-69
2022/05/06 06:15:48;;;;;;;36.40;12.50;;;;;;;12.46;35.55;100514.77;25155;1314;3026815;-64
2022/05/06 06:18:20;;;;;;;31.70;10.40;;;;;;;12.57;35.15;100515.42;25076;1316;3026906;-66
2022/05/06 06:20:50;;;;;;;37.80;11.00;;;;;;;12.67;34.67;100521.23;25199;1316;3026201;-66
2022/05/06 06:23:20;;;;;;;32.40;10.50;;;;;;;12.77;34.46;100514.77;25141;1315;3026804;-67
2022/05/06 06:25:50;;;;;;;27.20;10.80;;;;;;;12.84;34.31;100516.66;25142;1316;3067960;-66
2022/05/06 06:28:19;;;;;;;35.00;10.80;;;;;;;12.89;34.48;100517.80;25127;1315;3026895;-63
2022/05/06 06:30:49;;;;;;;32.50;10.80;;;;;;;13.06;34.25;100519.66;25141;1316;3054557;-65
2022/05/06 06:33:21;;;;;;;35.70;11.40;;;;;;;13.11;33.91;100518.52;25104;1315;3026354;-65
2022/05/06 06:35:50;;;;;;;28.40;9.20;;;;;;;13.17;33.40;100519.95;25099;1317;3026666;-65
2022/05/06 06:38:19;;;;;;;28.30;9.60;;;;;;;13.33;32.97;100521.07;25125;1316;3026532;-64
2022/05/06 06:40:49;;;;;;;33.50;10.00;;;;;;;13.34;32.81;100523.65;25134;1316;3069045;-64
2022/05/06 06:43:18;;;;;;;32.30;11.30;;;;;;;13.39;32.80;100524.06;25073;1316;3029452;-64
2022/05/06 06:46:06;;;;;;;28.90;10.00;;;;;;;13.46;32.56;100530.41;25085;1314;3052553;-64
2022/05/06 06:48:54;;;;;;;33.20;10.70;;;;;;;13.56;32.30;100534.23;25135;1316;3055690;-62
2022/05/06 06:51:47;;;;;;;32.30;10.10;;;;;;;13.62;32.55;100529.48;25070;1316;3057012;-63
2022/05/06 06:54:16;;;;;;;25.10;9.80;;;;;;;13.80;32.16;100526.39;25172;1316;3027142;-65
2022/05/06 06:56:45;;;;;;;32.90;10.60;;;;;;;13.80;31.78;100528.15;25096;1316;3026650;-65
2022/05/06 06:59:14;;;;;;;31.80;11.00;;;;;;;13.85;31.70;100523.44;25155;1316;3057704;-65
2022/05/06 07:01:43;;;;;;;35.10;10.90;;;;;;;13.88;31.79;100528.58;25102;1315;3026522;-64
2022/05/06 07:04:13;;;;;;;40.80;11.50;;;;;;;13.95;32.01;100525.67;25121;1315;3054507;-66
2022/05/06 07:12:19;;;;;;;30.20;12.50;;;;;;;14.24;31.40;100518.69;25135;1314;3056022;-64
2022/05/06 07:14:48;;;;;;;34.00;10.80;;;;;;;14.28;31.42;100514.58;25192;1315;3026313;-65
2022/05/06 07:17:17;;;;;;;29.90;9.90;;;;;;;14.32;31.67;100515.40;25451;1315;3049760;-63
2022/05/06 07:19:46;;;;;;;26.40;9.00;;;;;;;14.35;30.83;100515.75;25905;1315;3026609;-62
2022/05/06 07:22:15;;;;;;;33.40;9.20;;;;;;;14.38;30.66;100517.16;25940;1316;3027991;-65
2022/05/06 07:24:47;;;;;;;27.80;9.60;;;;;;;14.46;30.95;100514.74;25545;1315;3052261;-65
2022/05/06 07:27:18;;;;;;;29.00;9.50;;;;;;;14.55;30.92;100514.20;25157;1316;3027012;-67
2022/05/06 07:29:46;;;;;;;31.50;9.00;;;;;;;14.76;30.30;100508.05;25132;1315;3026470;-66
2022/05/06 07:32:18;;;;;;;20.60;6.30;;;;;;;14.83;29.47;100505.31;25155;1316;3026066;-66
2022/05/06 07:34:47;;;;;;;20.10;6.20;;;;;;;14.83;28.49;100500.34;25142;1315;3028918;-67
2022/05/06 07:37:16;;;;;;;17.20;6.00;;;;;;;14.84;27.99;100503.66;25150;1316;3026505;-65
2022/05/06 07:39:46;;;;;;;19.40;6.60;;;;;;;14.90;28.47;100504.67;25127;1316;3071681;-66
2022/05/06 07:42:15;;;;;;;23.00;8.50;;;;;;;15.01;28.90;100507.70;25150;1316;3026278;-65
2022/05/06 07:44:44;;;;;;;20.80;7.50;;;;;;;15.07;28.70;100506.52;25153;1315;3053591;-67
2022/05/06 07:47:13;;;;;;;25.80;7.10;;;;;;;15.14;28.70;100505.70;25095;1316;3026832;-66
2022/05/06 07:49:43;;;;;;;23.90;6.30;;;;;;;15.24;28.61;100505.20;25100;1316;3026480;-67
2022/05/06 07:52:12;;;;;;;16.90;5.60;;;;;;;15.30;27.51;100501.48;25128;1315;3029741;-63
2022/05/06 07:54:41;;;;;;;21.40;5.80;;;;;;;15.42;27.37;100500.20;25092;1316;3068247;-66
2022/05/06 07:57:10;;;;;;;20.90;6.20;;;;;;;15.52;27.53;100499.02;25170;1316;3027179;-66
2022/05/06 07:59:39;;;;;;;16.70;6.60;;;;;;;15.60;27.43;100486.34;25177;1316;3051223;-65
2022/05/06 08:04:55;;;;;;;23.60;6.90;;;;;;;15.75;27.99;100488.91;25106;1315;3055786;-63
2022/05/06 08:07:24;;;;;;;22.60;7.40;;;;;;;15.77;27.80;100492.79;25150;1316;3027981;-64
2022/05/06 08:09:53;;;;;;;29.90;7.30;;;;;;;15.81;27.58;100493.45;25172;1315;3050979;-66
2022/05/06 08:12:23;;;;;;;21.00;7.30;;;;;;;15.92;27.18;100494.35;25141;1316;3026329;-67
2022/05/06 08:14:52;;;;;;;20.50;6.70;;;;;;;16.13;26.87;100487.09;25164;1316;3027263;-65
2022/05/06 08:17:21;;;;;;;26.60;6.70;;;;;;;16.17;26.69;100483.16;25100;1316;3049318;-67
2022/05/06 08:19:51;;;;;;;23.30;7.00;;;;;;;16.23;26.77;100491.73;25165;1316;3026538;-66
2022/05/06 08:22:20;;;;;;;24.80;7.90;;;;;;;16.28;26.33;100493.49;25147;1314;3026844;-66
2022/05/06 08:24:51;;;;;;;21.40;7.40;;;;;;;16.23;26.66;100487.48;25117;1315;3051360;-64
2022/05/06 08:27:20;;;;;;;23.70;6.50;;;;;;;16.39;26.76;100477.89;25178;1316;3026909;-65
2022/05/06 08:29:49;;;;;;;25.50;5.60;;;;;;;16.45;25.77;100480.17;25131;1316;3026195;-64
2022/05/06 08:32:18;;;;;;;16.90;6.30;;;;;;;16.50;25.83;100487.79;25168;1316;3048386;-66
2022/05/06 08:34:47;;;;;;;18.30;6.80;;;;;;;16.53;25.64;100486.13;25150;1316;3026387;-64
2022/05/06 08:37:16;;;;;;;18.20;6.10;;;;;;;16.53;25.76;100486.70;25157;1316;3054281;-67
2022/05/06 08:39:45;;;;;;;20.50;5.70;;;;;;;16.63;25.51;100481.02;25125;1315;3026813;-66
2022/05/06 08:42:16;;;;;;;22.00;5.90;;;;;;;16.75;25.20;100479.98;25110;1315;3026865;-65
2022/05/06 08:53:09;;;;;;;26.10;6.40;;;;;;;17.02;25.47;100480.97;25119;1315;3051539;-68
2022/05/06 08:55:38;;;;;;;22.70;6.00;;;;;;;16.90;25.49;100480.90;25099;1318;3029873;-66
2022/05/06 08:58:07;;;;;;;19.60;6.80;;;;;;;17.05;25.67;100481.13;25134;1314;3052678;-66
2022/05/06 09:00:36;;;;;;;21.60;6.80;;;;;;;16.99;25.40;100478.13;25177;1316;3026361;-68
2022/05/06 09:03:05;;;;;;;12.00;5.90;;;;;;;17.09;25.15;100479.40;25148;1316;3049506;-68
2022/05/06 09:05:47;;;;;;;23.20;6.80;;;;;;;17.39;24.55;100478.00;25143;1316;3027342;-67
2022/05/06 09:08:18;;;;;;;16.80;6.70;;;;;;;17.47;24.73;100480.02;25157;1316;3052297;-68
2022/05/06 09:11:01;;;;;;;21.50;6.50;;;;;;;17.52;24.72;100481.08;25094;1316;3027149;-66
2022/05/06 09:13:31;;;;;;;18.20;5.70;;;;;;;17.51;24.71;100479.54;25178;1316;3049700;-67
2022/05/06 09:16:41;;;;;;;19.70;6.80;;;;;;;17.62;25.08;100478.77;25176;1316;3026448;-64
2022/05/06 09:19:19;;;;;;;23.40;6.90;;;;;;;17.65;24.94;100478.01;25170;1316;3052119;-69
2022/05/06 09:22:14;;;;;;;22.00;7.10;;;;;;;17.69;25.03;100473.84;25154;1316;3057499;-66
2022/05/06 09:24:47;;;;;;;22.00;7.70;;;;;;;17.71;24.88;100476.70;25108;1316;3052058;-66
2022/05/06 09:27:21;;;;;;;21.60;6.80;;;;;;;17.64;25.03;100481.30;25158;1316;3026820;-66
2022/05/06 09:29:51;;;;;;;22.10;7.30;;;;;;;17.90;25.09;100474.95;25159;1316;3053745;-68
2022/05/06 09:32:25;;;;;;;23.30;7.10;;;;;;;17.97;24.57;100472.15;25123;1316;3026593;-67
2022/05/06 09:34:55;;;;;;;25.60;7.00;;;;;;;17.94;24.68;100469.50;25164;1315;3026626;-65
2022/05/06 09:37:34;;;;;;;19.10;5.50;;;;;;;17.98;24.33;100467.06;25193;1316;3026796;-67
2022/05/06 09:40:10;;;;;;;19.40;5.60;;;;;;;18.13;23.90;100465.98;25136;1316;3052705;-66
2022/05/06 09:42:43;;;;;;;11.60;4.80;;;;;;;18.20;24.13;100464.14;25145;1316;3057169;-67
2022/05/06 09:45:14;;;;;;;19.80;5.80;;;;;;;18.17;23.86;100457.31;25118;1314;3050445;-66
2022/05/06 09:47:44;;;;;;;13.80;5.10;;;;;;;18.25;23.47;100456.29;25157;1316;3026716;-68
2022/05/06 09:50:13;;;;;;;16.20;5.50;;;;;;;18.38;23.35;100461.74;25168;1316;3026867;-68
2022/05/06 09:52:42;;;;;;;18.70;5.70;;;;;;;18.49;23.99;100466.88;25176;1316;3026479;-66
2022/05/06 09:55:12;;;;;;;10.50;4.80;;;;;;;18.56;23.76;100470.19;25072;1316;3026893;-69
2022/05/06 09:57:42;;;;;;;15.40;5.70;;;;;;;18.68;23.45;100455.63;25114;1315;3053343;-68
2022/05/06 10:00:12;;;;;;;17.80;6.40;;;;;;;18.70;23.49;100459.38;25154;1315;3027877;-69
2022/05/06 10:02:40;;;;;;;15.60;5.30;;;;;;;18.73;23.35;100456.16;25166;1313;3028644;-69
2022/05/06 10:05:10;;;;;;;23.20;5.80;;;;;;;18.88;22.87;100461.52;25172;1313;3029220;-68
2022/05/06 10:07:45;;;;;;;13.70;5.20;;;;;;;18.89;23.07;100454.55;25125;1313;3071062;-69
2022/05/06 10:10:19;;;;;;;14.80;5.30;;;;;;;18.96;22.97;100456.48;25133;1316;3050211;-65
2022/05/06 10:12:59;;;;;;;21.20;4.80;;;;;;;19.00;23.12;100461.35;25163;1316;3051275;-67
2022/05/06 10:15:29;;;;;;;18.30;5.40;;;;;;;19.18;23.01;100458.31;25155;1315;3053634;-68
2022/05/06 10:18:01;;;;;;;16.00;5.80;;;;;;;19.14;23.03;100452.77;25147;1315;3026237;-68
2022/05/06 10:20:34;;;;;;;14.40;5.30;;;;;;;19.25;23.24;100453.24;25186;1316;3026733;-70
2022/05/06 10:23:04;;;;;;;12.20;5.00;;;;;;;19.28;22.64;100450.68;25132;1316;3028368;-70
2022/05/06 10:25:46;;;;;;;27.10;5.10;;;;;;;19.48;22.29;100451.92;25135;1315;3026726;-71
2022/05/06 10:34:10;;;;;;;13.10;3.80;;;;;;;19.60;21.85;100451.64;25107;1316;3054626;-68
2022/05/06 10:36:41;;;;;;;11.20;3.90;;;;;;;19.48;21.97;100445.14;25119;1316;3026904;-68
2022/05/06 10:39:26;;;;;;;7.40;3.20;;;;;;;19.54;22.09;100447.38;25126;1319;3027234;-72
2022/05/06 10:42:12;;;;;;;9.90;3.20;;;;;;;19.55;22.06;100441.77;25080;1316;3050471;-68
2022/05/06 10:44:45;;;;;;;11.90;3.20;;;;;;;19.63;22.09;100438.81;25168;1318;3053003;-67
2022/05/06 10:47:20;;;;;;;8.70;3.60;;;;;;;19.66;21.67;100434.27;25167;1316;3026646;-67
2022/05/06 10:49:52;;;;;;;13.70;3.00;;;;;;;19.67;22.17;100434.86;25072;1315;3069899;-71
2022/05/06 10:52:28;;;;;;;10.00;3.10;;;;;;;19.79;21.99;100437.67;25082;1316;3027681;-70
2022/05/06 10:54:59;;;;;;;8.40;3.30;;;;;;;19.85;21.60;100435.77;25117;1316;3054600;-70
2022/05/06 10:57:33;;;;;;;7.60;3.30;;;;;;;19.83;21.15;100437.35;25127;1315;3026638;-65
2022/05/06 11:00:04;;;;;;;7.90;4.60;;;;;;;20.03;21.10;100433.36;25046;1315;3057700;-69
2022/05/06 11:02:36;;;;;;;8.80;3.30;;;;;;;20.14;20.62;100429.58;25184;1315;3026980;-64
2022/05/06 11:05:06;;;;;;;10.40;3.60;;;;;;;20.28;20.75;100429.41;25124;1316;3026576;-70
2022/05/06 11:07:37;;;;;;;8.00;3.70;;;;;;;20.39;20.79;100427.25;25155;1314;3026495;-66
2022/05/06 11:10:07;;;;;;;13.80;3.00;;;;;;;20.37;20.88;100417.46;25166;1315;3026674;-66
2022/05/06 11:12:59;;;;;;;20.80;3.00;;;;;;;20.30;20.56;100426.61;25165;1316;3026682;-70
2022/05/06 11:15:32;;;;;;;13.30;3.00;;;;;;;20.08;20.60;100424.23;25212;1316;3052555;-70
2022/05/06 11:18:04;;;;;;;11.90;3.40;;;;;;;20.25;20.90;100419.15;25118;1316;3027756;-67
2022/05/06 11:20:38;;;;;;;;;;;;;;;20.41;20.99;100421.02;25222;1315;3055620;-70
2022/05/06 11:23:08;;;;;;;9.20;3.00;;;;;;;20.41;20.63;100419.59;25105;1313;3026561;-63
2022/05/06 11:25:38;;;;;;;16.60;3.50;;;;;;;20.45;20.95;100415.02;24726;1313;3711924;-68
2022/05/06 11:28:17;;;;;;;10.10;3.50;;;;;;;20.47;20.94;100409.64;25138;1313;3027151;-74
2022/05/06 11:30:50;;;;;;;15.80;4.00;;;;;;;20.63;20.85;100410.91;25175;1313;3069122;-68
2022/05/06 11:33:24;;;;;;;19.30;3.60;;;;;;;20.73;20.83;100415.27;25166;1316;3026865;-66
2022/05/06 11:36:03;;;;;;;;;;;;;;;20.60;20.82;100411.48;25185;1313;3054518;-63
2022/05/06 11:38:37;;;;;;;12.70;3.80;;;;;;;20.66;20.80;100409.24;25173;1313;3052530;-73
2022/05/06 11:41:10;;;;;;;8.80;3.70;;;;;;;20.72;20.77;100404.30;25142;1313;3058699;-67
2022/05/06 11:43:40;;;;;;;12.10;4.00;;;;;;;20.97;20.42;100402.29;25161;1313;3026604;-70
2022/05/06 11:49:04;;;;;;;13.50;3.80;;;;;;;21.13;20.24;100402.27;25209;1313;3051282;-72
2022/05/06 11:51:35;;;;;;;11.20;3.40;;;;;;;21.11;20.18;100395.98;25139;1313;3026736;-71
2022/05/06 11:54:04;;;;;;;10.60;3.50;;;;;;;21.27;20.19;100392.95;25216;1313;3053930;-69
2022/05/06 11:56:33;;;;;;;13.20;3.80;;;;;;;21.25;19.91;100389.57;25191;1316;3026504;-72
2022/05/06 11:59:02;;;;;;;15.30;4.20;;;;;;;21.38;19.72;100384.52;25418;1315;3026656;-63
2022/05/06 12:01:32;;;;;;;21.60;4.40;;;;;;;21.58;19.57;100382.47;25636;1315;3051792;-64